createdAt,value
2018-03-03T00:00:30.474Z,0.00
2018-03-03T00:01:30.494Z,0.00
2018-03-03T00:02:30.509Z,0.00
2018-03-03T00:03:30.515Z,0.00
2018-03-03T00:04:30.536Z,0.00
2018-03-03T00:05:30.544Z,0.00
2018-03-03T00:06:30.557Z,0.00
2018-03-03T00:07:30.578Z,0.00
2018-03-03T00:08:30.592Z,0.00
2018-03-03T00:09:30.601Z,0.00
2018-03-03T00:10:30.614Z,0.00
2018-03-03T00:11:30.634Z,0.00
2018-03-03T00:12:30.649Z,0.00
2018-03-03T00:13:30.657Z,0.00
2018-03-03T00:14:30.672Z,0.00
2018-03-03T00:15:30.690Z,0.00
2018-03-03T00:16:30.704Z,0.00
2018-03-03T00:17:30.712Z,0.00
2018-03-03T00:18:30.727Z,0.00
2018-03-03T00:19:30.747Z,0.00
2018-03-03T00:20:30.754Z,0.00
2018-03-03T00:21:30.774Z,0.00
2018-03-03T00:22:30.782Z,0.00
2018-03-03T00:23:30.800Z,0.00
2018-03-03T00:24:30.810Z,0.00
2018-03-03T00:25:30.832Z,0.00
2018-03-03T00:26:30.838Z,0.00
2018-03-03T00:27:30.857Z,0.00
2018-03-03T00:28:30.871Z,0.00
2018-03-03T00:29:30.879Z,0.00
2018-03-03T00:30:30.899Z,0.00
2018-03-03T00:31:30.907Z,0.00
2018-03-03T00:32:30.927Z,0.00
2018-03-03T00:33:30.935Z,0.00
2018-03-03T00:34:30.955Z,0.00
2018-03-03T00:35:30.963Z,0.00
2018-03-03T00:36:30.983Z,0.00
2018-03-03T00:37:30.991Z,0.00
2018-03-03T00:38:31.011Z,0.00
2018-03-03T00:39:31.018Z,0.00
2018-03-03T00:40:31.039Z,0.00
2018-03-03T00:41:31.052Z,0.00
2018-03-03T00:42:31.067Z,0.00
2018-03-03T00:43:31.074Z,0.00
2018-03-03T00:44:31.100Z,0.00
2018-03-03T00:45:31.102Z,0.00
2018-03-03T00:46:31.117Z,0.00
2018-03-03T00:47:31.136Z,0.00
2018-03-03T00:48:31.153Z,0.00
2018-03-03T00:49:31.159Z,0.00
2018-03-03T00:50:31.173Z,0.00
2018-03-03T00:51:31.192Z,0.00
2018-03-03T00:52:31.200Z,0.00
2018-03-03T00:53:31.220Z,0.00
2018-03-03T00:54:31.234Z,0.00
2018-03-03T00:55:31.241Z,0.00
2018-03-03T00:56:31.255Z,0.00
2018-03-03T00:57:31.326Z,0.00
2018-03-03T00:58:31.292Z,0.00
2018-03-03T00:59:31.297Z,0.00
2018-03-03T01:00:31.316Z,0.00
2018-03-03T01:01:31.325Z,0.00
2018-03-03T01:02:31.340Z,0.00
2018-03-03T01:03:31.358Z,0.00
2018-03-03T01:04:31.372Z,0.00
2018-03-03T01:05:31.381Z,0.00
2018-03-03T01:06:31.395Z,0.00
2018-03-03T01:07:31.414Z,0.00
2018-03-03T01:08:31.428Z,0.00
2018-03-03T01:09:31.436Z,0.00
2018-03-03T01:10:31.450Z,0.00
2018-03-03T01:11:31.472Z,0.00
2018-03-03T01:12:31.482Z,0.00
2018-03-03T01:13:31.490Z,0.00
2018-03-03T01:14:31.505Z,0.00
2018-03-03T01:15:31.523Z,0.00
2018-03-03T01:16:31.532Z,0.00
2018-03-03T01:17:31.552Z,0.00
2018-03-03T01:18:31.565Z,0.00
2018-03-03T01:19:31.572Z,0.00
2018-03-03T01:20:31.586Z,0.00
2018-03-03T01:21:31.606Z,0.00
2018-03-03T01:22:31.621Z,0.00
2018-03-03T01:23:31.628Z,0.00
2018-03-03T01:24:31.642Z,0.00
2018-03-03T01:25:31.655Z,0.00
2018-03-03T01:26:31.676Z,0.00
2018-03-03T01:27:31.711Z,0.00
2018-03-03T01:28:31.702Z,0.00
2018-03-03T01:29:31.716Z,0.00
2018-03-03T01:30:31.730Z,0.00
2018-03-03T01:31:31.742Z,0.00
2018-03-03T01:32:31.751Z,0.00
2018-03-03T01:33:31.770Z,0.00
2018-03-03T01:34:31.785Z,0.00
2018-03-03T01:35:31.792Z,0.00
2018-03-03T01:36:31.844Z,0.00
2018-03-03T01:37:31.826Z,0.00
2018-03-03T01:38:31.844Z,0.00
2018-03-03T01:39:31.846Z,0.00
2018-03-03T01:40:31.866Z,0.00
2018-03-03T01:41:31.879Z,0.00
2018-03-03T01:42:31.887Z,0.00
2018-03-03T01:43:31.907Z,0.00
2018-03-03T01:44:31.919Z,0.00
2018-03-03T01:45:31.928Z,0.00
2018-03-03T01:46:31.941Z,0.00
2018-03-03T01:47:31.954Z,0.00
2018-03-03T01:48:31.975Z,0.00
2018-03-03T01:49:31.981Z,0.00
2018-03-03T01:50:32.002Z,0.00
2018-03-03T01:51:32.008Z,0.00
2018-03-03T01:52:32.026Z,0.00
2018-03-03T01:53:32.036Z,0.00
2018-03-03T01:54:32.055Z,0.00
2018-03-03T01:55:32.063Z,0.00
2018-03-03T01:56:32.082Z,0.00
2018-03-03T01:57:32.090Z,0.00
2018-03-03T01:58:32.103Z,0.00
2018-03-03T01:59:32.150Z,0.00
2018-03-03T02:00:32.129Z,0.00
2018-03-03T02:01:32.147Z,0.00
2018-03-03T02:02:32.163Z,0.00
2018-03-03T02:03:32.170Z,0.00
2018-03-03T02:04:32.185Z,0.00
2018-03-03T02:05:32.202Z,0.00
2018-03-03T02:06:32.211Z,0.00
2018-03-03T02:07:32.229Z,0.00
2018-03-03T02:08:32.238Z,0.00
2018-03-03T02:09:32.258Z,0.00
2018-03-03T02:10:32.266Z,0.00
2018-03-03T02:11:32.282Z,0.00
2018-03-03T02:12:32.297Z,0.00
2018-03-03T02:13:32.310Z,0.00
2018-03-03T02:14:32.325Z,0.00
2018-03-03T02:15:32.337Z,0.00
2018-03-03T02:16:32.352Z,0.00
2018-03-03T02:17:32.359Z,0.00
2018-03-03T02:18:32.373Z,0.00
2018-03-03T02:19:32.394Z,0.00
2018-03-03T02:20:32.399Z,0.00
2018-03-03T02:21:32.419Z,0.00
2018-03-03T02:22:32.433Z,0.00
2018-03-03T02:23:32.438Z,0.00
2018-03-03T02:24:32.453Z,0.00
2018-03-03T02:25:32.476Z,0.00
2018-03-03T02:26:32.487Z,0.00
2018-03-03T02:27:32.493Z,0.00
2018-03-03T02:28:32.510Z,0.00
2018-03-03T02:29:32.519Z,0.00
2018-03-03T02:30:32.540Z,0.00
2018-03-03T02:31:32.551Z,0.00
2018-03-03T02:32:32.562Z,0.00
2018-03-03T02:33:32.579Z,0.00
2018-03-03T02:34:32.594Z,0.00
2018-03-03T02:35:32.615Z,0.00
2018-03-03T02:36:32.621Z,0.00
2018-03-03T02:37:32.629Z,0.00
2018-03-03T02:38:32.645Z,0.00
2018-03-03T02:39:32.661Z,0.00
2018-03-03T02:40:32.675Z,0.00
2018-03-03T02:41:32.689Z,0.00
2018-03-03T02:42:32.696Z,0.00
2018-03-03T02:43:32.715Z,0.00
2018-03-03T02:44:32.730Z,0.00
2018-03-03T02:45:32.740Z,0.00
2018-03-03T02:46:32.751Z,0.00
2018-03-03T02:47:32.768Z,0.00
2018-03-03T02:48:32.788Z,0.00
2018-03-03T02:49:32.790Z,0.00
2018-03-03T02:50:32.805Z,0.00
2018-03-03T02:51:32.817Z,0.00
2018-03-03T02:52:32.831Z,0.00
2018-03-03T02:53:32.849Z,0.00
2018-03-03T02:54:32.864Z,0.00
2018-03-03T02:55:32.873Z,0.00
2018-03-03T02:56:32.883Z,0.00
2018-03-03T02:57:32.903Z,0.00
2018-03-03T02:58:32.919Z,0.00
2018-03-03T02:59:32.926Z,0.00
2018-03-03T03:00:32.937Z,0.00
2018-03-03T03:01:32.952Z,0.00
2018-03-03T03:02:32.966Z,0.00
2018-03-03T03:03:32.984Z,0.00
2018-03-03T03:04:32.992Z,0.00
2018-03-03T03:05:33.011Z,0.00
2018-03-03T03:06:33.020Z,0.00
2018-03-03T03:07:33.034Z,0.00
2018-03-03T03:08:33.052Z,0.00
2018-03-03T03:09:33.066Z,0.00
2018-03-03T03:10:33.083Z,0.00
2018-03-03T03:11:33.086Z,0.00
2018-03-03T03:12:33.105Z,0.00
2018-03-03T03:13:33.114Z,0.00
2018-03-03T03:14:33.135Z,0.00
2018-03-03T03:15:33.141Z,0.00
2018-03-03T03:16:33.166Z,0.00
2018-03-03T03:17:33.177Z,0.00
2018-03-03T03:18:33.187Z,0.00
2018-03-03T03:19:33.195Z,0.00
2018-03-03T03:20:33.214Z,0.00
2018-03-03T03:21:33.223Z,0.00
2018-03-03T03:22:33.241Z,0.00
2018-03-03T03:23:33.255Z,0.00
2018-03-03T03:24:33.262Z,0.00
2018-03-03T03:25:33.284Z,0.00
2018-03-03T03:26:33.291Z,0.00
2018-03-03T03:27:33.309Z,0.00
2018-03-03T03:28:33.317Z,0.00
2018-03-03T03:29:33.337Z,0.00
2018-03-03T03:30:33.349Z,0.00
2018-03-03T03:31:33.365Z,0.00
2018-03-03T03:32:33.372Z,0.00
2018-03-03T03:33:33.391Z,0.00
2018-03-03T03:34:33.405Z,0.00
2018-03-03T03:35:33.413Z,0.00
2018-03-03T03:36:33.429Z,0.00
2018-03-03T03:37:33.446Z,0.00
2018-03-03T03:38:33.460Z,0.00
2018-03-03T03:39:33.467Z,0.00
2018-03-03T03:40:33.486Z,0.00
2018-03-03T03:41:33.495Z,0.00
2018-03-03T03:42:33.508Z,0.00
2018-03-03T03:43:33.528Z,0.00
2018-03-03T03:44:33.542Z,0.00
2018-03-03T03:45:33.550Z,0.00
2018-03-03T03:46:33.564Z,0.00
2018-03-03T03:47:33.581Z,0.00
2018-03-03T03:48:33.595Z,0.00
2018-03-03T03:49:33.604Z,0.00
2018-03-03T03:50:33.619Z,0.00
2018-03-03T03:51:33.636Z,0.00
2018-03-03T03:52:33.651Z,0.00
2018-03-03T03:53:33.659Z,0.00
2018-03-03T03:54:33.673Z,0.00
2018-03-03T03:55:33.692Z,0.00
2018-03-03T03:56:33.704Z,0.00
2018-03-03T03:57:33.714Z,0.00
2018-03-03T03:58:33.733Z,0.00
2018-03-03T03:59:33.741Z,0.00
2018-03-03T04:00:33.760Z,0.00
2018-03-03T04:01:33.768Z,0.00
2018-03-03T04:02:33.787Z,0.00
2018-03-03T04:03:33.795Z,0.00
2018-03-03T04:04:33.815Z,0.00
2018-03-03T04:05:33.823Z,0.00
2018-03-03T04:06:33.843Z,0.00
2018-03-03T04:07:33.850Z,0.00
2018-03-03T04:08:33.868Z,0.00
2018-03-03T04:09:33.878Z,0.00
2018-03-03T04:10:33.897Z,0.00
2018-03-03T04:11:33.905Z,0.00
2018-03-03T04:12:33.922Z,0.00
2018-03-03T04:13:33.938Z,0.00
2018-03-03T04:14:33.947Z,0.00
2018-03-03T04:15:33.966Z,0.00
2018-03-03T04:16:33.974Z,0.00
2018-03-03T04:17:33.994Z,0.00
2018-03-03T04:18:34.002Z,0.00
2018-03-03T04:19:34.021Z,0.00
2018-03-03T04:20:34.029Z,0.00
2018-03-03T04:21:34.050Z,0.00
2018-03-03T04:22:34.058Z,0.00
2018-03-03T04:23:34.076Z,0.00
2018-03-03T04:24:34.084Z,0.00
2018-03-03T04:25:34.103Z,0.00
2018-03-03T04:26:34.112Z,0.00
2018-03-03T04:27:34.131Z,0.00
2018-03-03T04:28:34.145Z,0.00
2018-03-03T04:29:34.153Z,0.00
2018-03-03T04:30:34.166Z,0.00
2018-03-03T04:31:34.189Z,0.00
2018-03-03T04:32:34.199Z,0.00
2018-03-03T04:33:34.210Z,0.00
2018-03-03T04:34:34.223Z,0.00
2018-03-03T04:35:34.241Z,0.00
2018-03-03T04:36:34.249Z,0.00
2018-03-03T04:37:34.269Z,0.00
2018-03-03T04:38:34.286Z,0.00
2018-03-03T04:39:34.290Z,0.00
2018-03-03T04:40:34.303Z,0.00
2018-03-03T04:41:34.323Z,0.00
2018-03-03T04:42:34.338Z,0.00
2018-03-03T04:43:34.344Z,0.00
2018-03-03T04:44:34.359Z,0.00
2018-03-03T04:45:34.378Z,0.00
2018-03-03T04:46:34.393Z,0.00
2018-03-03T04:47:34.404Z,0.00
2018-03-03T04:48:34.414Z,0.00
2018-03-03T04:49:34.432Z,0.00
2018-03-03T04:50:34.447Z,0.00
2018-03-03T04:51:34.455Z,0.00
2018-03-03T04:52:34.474Z,0.00
2018-03-03T04:53:34.483Z,0.00
2018-03-03T04:54:34.497Z,0.00
2018-03-03T04:55:34.515Z,0.00
2018-03-03T04:56:34.530Z,0.00
2018-03-03T04:57:34.537Z,0.00
2018-03-03T04:58:34.550Z,0.00
2018-03-03T04:59:34.571Z,0.00
2018-03-03T05:00:34.584Z,0.00
2018-03-03T05:01:34.599Z,0.00
2018-03-03T05:02:34.606Z,0.00
2018-03-03T05:03:34.623Z,0.00
2018-03-03T05:04:34.639Z,0.00
2018-03-03T05:05:34.646Z,0.00
2018-03-03T05:06:34.665Z,0.00
2018-03-03T05:07:34.680Z,0.00
2018-03-03T05:08:34.694Z,0.00
2018-03-03T05:09:34.701Z,0.00
2018-03-03T05:10:34.721Z,0.00
2018-03-03T05:11:34.729Z,0.00
2018-03-03T05:12:34.747Z,0.00
2018-03-03T05:13:34.757Z,0.00
2018-03-03T05:14:34.776Z,0.00
2018-03-03T05:15:34.784Z,0.00
2018-03-03T05:16:34.802Z,0.00
2018-03-03T05:17:34.811Z,0.00
2018-03-03T05:18:34.830Z,0.00
2018-03-03T05:19:34.839Z,0.00
2018-03-03T05:20:34.859Z,0.00
2018-03-03T05:21:34.867Z,0.00
2018-03-03T05:22:34.886Z,0.00
2018-03-03T05:23:34.897Z,0.00
2018-03-03T05:24:34.908Z,0.00
2018-03-03T05:25:34.926Z,0.00
2018-03-03T05:26:34.935Z,0.00
2018-03-03T05:27:34.953Z,0.00
2018-03-03T05:28:34.963Z,0.00
2018-03-03T05:29:34.981Z,0.00
2018-03-03T05:30:34.990Z,0.00
2018-03-03T05:31:35.010Z,0.00
2018-03-03T05:32:35.018Z,0.00
2018-03-03T05:33:35.037Z,0.00
2018-03-03T05:34:35.046Z,0.00
2018-03-03T05:35:35.065Z,0.00
2018-03-03T05:36:35.076Z,0.00
2018-03-03T05:37:35.092Z,0.00
2018-03-03T05:38:35.101Z,0.00
2018-03-03T05:39:35.119Z,0.00
2018-03-03T05:40:35.128Z,0.00
2018-03-03T05:41:35.142Z,0.00
2018-03-03T05:42:35.155Z,0.00
2018-03-03T05:43:35.174Z,0.00
2018-03-03T05:44:35.182Z,0.00
2018-03-03T05:45:35.202Z,0.00
2018-03-03T05:46:35.211Z,0.00
2018-03-03T05:47:35.223Z,0.00
2018-03-03T05:48:35.243Z,0.00
2018-03-03T05:49:35.252Z,0.00
2018-03-03T05:50:35.275Z,0.00
2018-03-03T05:51:35.278Z,0.00
2018-03-03T05:52:35.297Z,0.00
2018-03-03T05:53:35.307Z,0.00
2018-03-03T05:54:35.327Z,0.00
2018-03-03T05:55:35.336Z,0.00
2018-03-03T05:56:35.354Z,0.00
2018-03-03T05:57:35.367Z,0.00
2018-03-03T05:58:35.381Z,0.00
2018-03-03T05:59:35.388Z,0.00
2018-03-03T06:00:35.408Z,0.00
2018-03-03T06:01:35.415Z,0.00
2018-03-03T06:02:35.435Z,0.00
2018-03-03T06:03:35.457Z,0.00
2018-03-03T06:04:35.457Z,0.00
2018-03-03T06:05:35.476Z,0.00
2018-03-03T06:06:35.484Z,0.00
2018-03-03T06:07:35.503Z,0.00
2018-03-03T06:08:35.511Z,0.00
2018-03-03T06:09:35.531Z,0.00
2018-03-03T06:10:35.540Z,5.63
2018-03-03T06:11:35.557Z,5.63
2018-03-03T06:12:35.566Z,5.63
2018-03-03T06:13:35.580Z,5.63
2018-03-03T06:14:35.600Z,5.63
2018-03-03T06:15:35.607Z,5.63
2018-03-03T06:16:35.621Z,5.63
2018-03-03T06:17:35.641Z,5.63
2018-03-03T06:18:35.654Z,11.25
2018-03-03T06:19:35.667Z,11.25
2018-03-03T06:20:35.681Z,11.25
2018-03-03T06:21:35.691Z,11.25
2018-03-03T06:22:35.704Z,11.25
2018-03-03T06:23:35.721Z,16.88
2018-03-03T06:24:35.737Z,16.88
2018-03-03T06:25:35.745Z,16.88
2018-03-03T06:26:35.758Z,16.88
2018-03-03T06:27:35.777Z,16.88
2018-03-03T06:28:35.794Z,22.50
2018-03-03T06:29:35.805Z,22.50
2018-03-03T06:30:35.813Z,22.50
2018-03-03T06:31:35.832Z,22.50
2018-03-03T06:32:35.847Z,28.13
2018-03-03T06:33:35.853Z,28.13
2018-03-03T06:34:35.868Z,28.13
2018-03-03T06:35:35.880Z,28.13
2018-03-03T06:36:35.896Z,28.13
2018-03-03T06:37:35.914Z,33.75
2018-03-03T06:38:35.928Z,33.75
2018-03-03T06:39:35.935Z,33.75
2018-03-03T06:40:35.948Z,39.38
2018-03-03T06:41:35.968Z,39.38
2018-03-03T06:42:35.982Z,39.38
2018-03-03T06:43:35.990Z,39.38
2018-03-03T06:44:36.003Z,45.00
2018-03-03T06:45:36.017Z,45.00
2018-03-03T06:46:36.031Z,45.00
2018-03-03T06:47:36.050Z,50.63
2018-03-03T06:48:36.058Z,50.63
2018-03-03T06:49:36.082Z,56.25
2018-03-03T06:50:36.088Z,56.25
2018-03-03T06:51:36.099Z,56.25
2018-03-03T06:52:36.112Z,56.25
2018-03-03T06:53:36.136Z,61.88
2018-03-03T06:54:36.151Z,61.88
2018-03-03T06:55:36.157Z,61.88
2018-03-03T06:56:36.166Z,67.50
2018-03-03T06:57:36.186Z,67.50
2018-03-03T06:58:36.195Z,67.50
2018-03-03T06:59:36.214Z,67.50
2018-03-03T07:00:36.230Z,67.50
2018-03-03T07:01:36.241Z,67.50
2018-03-03T07:02:36.256Z,67.50
2018-03-03T07:03:36.263Z,67.50
2018-03-03T07:04:36.282Z,67.50
2018-03-03T07:05:36.289Z,67.50
2018-03-03T07:06:36.309Z,73.13
2018-03-03T07:07:36.323Z,73.13
2018-03-03T07:08:36.330Z,78.75
2018-03-03T07:09:36.351Z,78.75
2018-03-03T07:10:36.365Z,90.00
2018-03-03T07:11:36.371Z,95.63
2018-03-03T07:12:36.384Z,101.25
2018-03-03T07:13:36.405Z,106.88
2018-03-03T07:14:36.419Z,118.13
2018-03-03T07:15:36.427Z,129.38
2018-03-03T07:16:36.447Z,129.38
2018-03-03T07:17:36.454Z,129.38
2018-03-03T07:18:36.474Z,123.75
2018-03-03T07:19:36.488Z,118.13
2018-03-03T07:20:36.495Z,106.88
2018-03-03T07:21:36.510Z,101.25
2018-03-03T07:22:36.572Z,101.25
2018-03-03T07:23:36.542Z,95.63
2018-03-03T07:24:36.551Z,101.25
2018-03-03T07:25:36.569Z,95.63
2018-03-03T07:26:36.585Z,101.25
2018-03-03T07:27:36.591Z,101.25
2018-03-03T07:28:36.607Z,101.25
2018-03-03T07:29:36.625Z,101.25
2018-03-03T07:30:36.639Z,106.88
2018-03-03T07:31:36.648Z,112.50
2018-03-03T07:32:36.665Z,123.75
2018-03-03T07:33:36.681Z,140.63
2018-03-03T07:34:36.690Z,157.50
2018-03-03T07:35:36.706Z,168.75
2018-03-03T07:36:36.721Z,191.25
2018-03-03T07:37:36.732Z,202.50
2018-03-03T07:38:36.753Z,202.50
2018-03-03T07:39:36.759Z,208.13
2018-03-03T07:40:36.778Z,208.13
2018-03-03T07:41:36.786Z,208.13
2018-03-03T07:42:36.806Z,219.38
2018-03-03T07:43:36.813Z,219.38
2018-03-03T07:44:36.844Z,225.00
2018-03-03T07:45:36.842Z,225.00
2018-03-03T07:46:36.863Z,230.63
2018-03-03T07:47:36.869Z,230.63
2018-03-03T07:48:36.888Z,230.63
2018-03-03T07:49:36.899Z,230.63
2018-03-03T07:50:36.919Z,236.25
2018-03-03T07:51:36.925Z,236.25
2018-03-03T07:52:36.946Z,241.88
2018-03-03T07:53:36.955Z,241.88
2018-03-03T07:54:36.973Z,247.50
2018-03-03T07:55:36.989Z,247.50
2018-03-03T07:56:37.002Z,253.13
2018-03-03T07:57:37.011Z,258.75
2018-03-03T07:58:37.030Z,258.75
2018-03-03T07:59:37.039Z,264.38
2018-03-03T08:00:37.063Z,264.38
2018-03-03T08:01:37.067Z,264.38
2018-03-03T08:02:37.137Z,270.00
2018-03-03T08:03:37.096Z,275.63
2018-03-03T08:04:37.110Z,281.25
2018-03-03T08:05:37.131Z,281.25
2018-03-03T08:06:37.139Z,286.88
2018-03-03T08:07:37.159Z,292.50
2018-03-03T08:08:37.167Z,292.50
2018-03-03T08:09:37.188Z,303.75
2018-03-03T08:10:37.197Z,309.38
2018-03-03T08:11:37.216Z,309.38
2018-03-03T08:12:37.225Z,315.00
2018-03-03T08:13:37.245Z,315.00
2018-03-03T08:14:37.254Z,320.63
2018-03-03T08:15:37.274Z,326.25
2018-03-03T08:16:37.284Z,326.25
2018-03-03T08:17:37.302Z,337.50
2018-03-03T08:18:37.313Z,337.50
2018-03-03T08:19:37.332Z,343.13
2018-03-03T08:20:37.341Z,343.13
2018-03-03T08:21:37.361Z,348.75
2018-03-03T08:22:37.379Z,354.38
2018-03-03T08:23:37.383Z,354.38
2018-03-03T08:24:37.401Z,360.00
2018-03-03T08:25:37.419Z,360.00
2018-03-03T08:26:37.437Z,365.63
2018-03-03T08:27:37.443Z,371.25
2018-03-03T08:28:37.458Z,371.25
2018-03-03T08:29:37.478Z,376.88
2018-03-03T08:30:37.493Z,382.50
2018-03-03T08:31:37.504Z,388.13
2018-03-03T08:32:37.518Z,393.75
2018-03-03T08:33:37.539Z,399.38
2018-03-03T08:34:37.553Z,405.00
2018-03-03T08:35:37.562Z,427.50
2018-03-03T08:36:37.583Z,517.50
2018-03-03T08:37:37.625Z,658.13
2018-03-03T08:38:37.608Z,866.25
2018-03-03T08:39:37.629Z,1046.25
2018-03-03T08:40:37.643Z,1113.75
2018-03-03T08:41:37.654Z,1096.88
2018-03-03T08:42:37.672Z,1119.38
2018-03-03T08:43:37.690Z,1096.88
2018-03-03T08:44:37.705Z,753.75
2018-03-03T08:45:37.717Z,455.63
2018-03-03T08:46:37.733Z,450.00
2018-03-03T08:47:37.755Z,455.63
2018-03-03T08:48:37.771Z,455.63
2018-03-03T08:49:37.783Z,455.63
2018-03-03T08:50:37.800Z,455.63
2018-03-03T08:51:37.822Z,483.75
2018-03-03T08:52:37.838Z,810.00
2018-03-03T08:53:37.850Z,1164.38
2018-03-03T08:54:37.872Z,1192.50
2018-03-03T08:55:37.882Z,1175.63
2018-03-03T08:56:37.955Z,1192.50
2018-03-03T08:57:37.916Z,1192.50
2018-03-03T08:58:37.938Z,1209.38
2018-03-03T08:59:37.949Z,1254.38
2018-03-03T09:00:37.967Z,1282.50
2018-03-03T09:01:37.990Z,1265.63
2018-03-03T09:02:38.003Z,1299.38
2018-03-03T09:03:38.025Z,1282.50
2018-03-03T09:04:38.040Z,1265.63
2018-03-03T09:05:38.062Z,1276.88
2018-03-03T09:06:38.075Z,1299.38
2018-03-03T09:07:38.098Z,1316.25
2018-03-03T09:08:38.117Z,1321.88
2018-03-03T09:09:38.136Z,1327.50
2018-03-03T09:10:38.154Z,1321.88
2018-03-03T09:11:38.173Z,1305.00
2018-03-03T09:12:38.188Z,1316.25
2018-03-03T09:13:38.214Z,1344.38
2018-03-03T09:14:38.229Z,1299.38
2018-03-03T09:15:38.252Z,1276.88
2018-03-03T09:16:38.272Z,1327.50
2018-03-03T09:17:38.288Z,1350.00
2018-03-03T09:18:38.309Z,1355.63
2018-03-03T09:19:38.334Z,1344.38
2018-03-03T09:20:38.356Z,1389.38
2018-03-03T09:21:38.369Z,1423.13
2018-03-03T09:22:38.391Z,1395.00
2018-03-03T09:23:38.418Z,1338.75
2018-03-03T09:24:38.432Z,1372.50
2018-03-03T09:25:38.459Z,1417.50
2018-03-03T09:26:38.481Z,1423.13
2018-03-03T09:27:38.494Z,1411.88
2018-03-03T09:28:38.517Z,1400.63
2018-03-03T09:29:38.545Z,1395.00
2018-03-03T09:30:38.566Z,1440.00
2018-03-03T09:31:38.584Z,1462.50
2018-03-03T09:32:38.612Z,1451.25
2018-03-03T09:33:38.626Z,1473.75
2018-03-03T09:34:38.648Z,1462.50
2018-03-03T09:35:38.675Z,1434.38
2018-03-03T09:36:38.697Z,1389.38
2018-03-03T09:37:38.714Z,1378.13
2018-03-03T09:38:38.737Z,1400.63
2018-03-03T09:39:38.763Z,1440.00
2018-03-03T09:40:38.785Z,1434.38
2018-03-03T09:41:38.802Z,1400.63
2018-03-03T09:42:38.824Z,1428.75
2018-03-03T09:43:38.850Z,1473.75
2018-03-03T09:44:38.874Z,1445.63
2018-03-03T09:45:38.892Z,1389.38
2018-03-03T09:46:38.914Z,1479.38
2018-03-03T09:47:38.941Z,1513.13
2018-03-03T09:48:38.963Z,1507.50
2018-03-03T09:49:38.982Z,1518.75
2018-03-03T09:50:39.009Z,1507.50
2018-03-03T09:51:39.025Z,1468.13
2018-03-03T09:52:39.054Z,1468.13
2018-03-03T09:53:39.071Z,1490.63
2018-03-03T09:54:39.104Z,1496.25
2018-03-03T09:55:39.116Z,1530.00
2018-03-03T09:56:39.139Z,1513.13
2018-03-03T09:57:39.168Z,1563.75
2018-03-03T09:58:39.190Z,1575.00
2018-03-03T09:59:39.209Z,1546.88
2018-03-03T10:00:39.233Z,1546.88
2018-03-03T10:01:43.360Z,1546.88
2018-03-03T10:02:39.282Z,1524.38
2018-03-03T10:03:39.299Z,1541.25
2018-03-03T10:04:39.328Z,1524.38
2018-03-03T10:05:39.346Z,1518.75
2018-03-03T10:06:39.377Z,1473.75
2018-03-03T10:07:39.392Z,1513.13
2018-03-03T10:08:39.415Z,1541.25
2018-03-03T10:09:39.438Z,1546.88
2018-03-03T10:10:39.468Z,1552.50
2018-03-03T10:11:39.489Z,1535.63
2018-03-03T10:12:39.513Z,1473.75
2018-03-03T10:13:39.531Z,1541.25
2018-03-03T10:14:39.560Z,1586.25
2018-03-03T10:15:39.577Z,1614.38
2018-03-03T10:16:39.607Z,1631.25
2018-03-03T10:17:39.625Z,1614.38
2018-03-03T10:18:39.654Z,1603.13
2018-03-03T10:19:39.671Z,1631.25
2018-03-03T10:20:39.693Z,1625.63
2018-03-03T10:21:39.723Z,1569.38
2018-03-03T10:22:39.742Z,1501.88
2018-03-03T10:23:39.770Z,1473.75
2018-03-03T10:24:39.793Z,1316.25
2018-03-03T10:25:39.817Z,995.63
2018-03-03T10:26:39.836Z,596.25
2018-03-03T10:27:39.909Z,545.63
2018-03-03T10:28:39.882Z,523.13
2018-03-03T10:29:39.912Z,528.75
2018-03-03T10:30:39.929Z,556.88
2018-03-03T10:31:39.957Z,489.38
2018-03-03T10:32:39.974Z,489.38
2018-03-03T10:33:40.001Z,444.38
2018-03-03T10:34:40.022Z,416.25
2018-03-03T10:35:40.048Z,399.38
2018-03-03T10:36:40.069Z,382.50
2018-03-03T10:37:40.086Z,382.50
2018-03-03T10:38:40.108Z,388.13
2018-03-03T10:39:40.128Z,388.13
2018-03-03T10:40:40.170Z,405.00
2018-03-03T10:41:40.171Z,376.88
2018-03-03T10:42:40.198Z,331.88
2018-03-03T10:43:40.211Z,286.88
2018-03-03T10:44:40.233Z,270.00
2018-03-03T10:45:40.259Z,275.63
2018-03-03T10:46:40.279Z,275.63
2018-03-03T10:47:40.294Z,275.63
2018-03-03T10:48:40.313Z,264.38
2018-03-03T10:49:40.340Z,258.75
2018-03-03T10:50:40.394Z,247.50
2018-03-03T10:51:40.371Z,241.88
2018-03-03T10:52:40.391Z,241.88
2018-03-03T10:53:40.416Z,241.88
2018-03-03T10:54:40.434Z,236.25
2018-03-03T10:55:40.459Z,230.63
2018-03-03T10:56:40.471Z,230.63
2018-03-03T10:57:40.490Z,230.63
2018-03-03T10:58:40.503Z,236.25
2018-03-03T10:59:40.531Z,247.50
2018-03-03T11:00:40.545Z,247.50
2018-03-03T11:01:40.557Z,241.88
2018-03-03T11:02:40.576Z,230.63
2018-03-03T11:03:40.598Z,225.00
2018-03-03T11:04:40.617Z,219.38
2018-03-03T11:05:40.630Z,219.38
2018-03-03T11:06:40.651Z,225.00
2018-03-03T11:07:40.673Z,225.00
2018-03-03T11:08:40.690Z,219.38
2018-03-03T11:09:40.702Z,219.38
2018-03-03T11:10:40.730Z,213.75
2018-03-03T11:11:40.737Z,208.13
2018-03-03T11:12:40.754Z,208.13
2018-03-03T11:13:40.772Z,202.50
2018-03-03T11:14:40.793Z,202.50
2018-03-03T11:15:40.810Z,202.50
2018-03-03T11:16:40.823Z,208.13
2018-03-03T11:17:40.849Z,208.13
2018-03-03T11:18:40.862Z,208.13
2018-03-03T11:19:40.874Z,208.13
2018-03-03T11:20:40.891Z,208.13
2018-03-03T11:21:40.914Z,219.38
2018-03-03T11:22:40.933Z,230.63
2018-03-03T11:23:40.942Z,253.13
2018-03-03T11:24:40.966Z,264.38
2018-03-03T11:25:40.982Z,270.00
2018-03-03T11:26:40.994Z,281.25
2018-03-03T11:27:41.043Z,292.50
2018-03-03T11:28:41.033Z,298.13
2018-03-03T11:29:41.044Z,298.13
2018-03-03T11:30:41.061Z,298.13
2018-03-03T11:31:41.078Z,303.75
2018-03-03T11:32:41.101Z,303.75
2018-03-03T11:33:41.112Z,303.75
2018-03-03T11:34:41.135Z,309.38
2018-03-03T11:35:41.145Z,326.25
2018-03-03T11:36:41.168Z,348.75
2018-03-03T11:37:41.179Z,365.63
2018-03-03T11:38:41.203Z,360.00
2018-03-03T11:39:41.213Z,376.88
2018-03-03T11:40:41.235Z,393.75
2018-03-03T11:41:41.248Z,405.00
2018-03-03T11:42:41.268Z,433.13
2018-03-03T11:43:41.282Z,444.38
2018-03-03T11:44:41.298Z,438.75
2018-03-03T11:45:41.315Z,427.50
2018-03-03T11:46:41.339Z,427.50
2018-03-03T11:47:41.348Z,433.13
2018-03-03T11:48:41.366Z,438.75
2018-03-03T11:49:41.389Z,433.13
2018-03-03T11:50:41.400Z,421.88
2018-03-03T11:51:41.423Z,416.25
2018-03-03T11:52:41.444Z,421.88
2018-03-03T11:53:41.457Z,399.38
2018-03-03T11:54:41.469Z,376.88
2018-03-03T11:55:41.491Z,360.00
2018-03-03T11:56:41.506Z,360.00
2018-03-03T11:57:41.525Z,348.75
2018-03-03T11:58:41.543Z,326.25
2018-03-03T11:59:41.560Z,309.38
2018-03-03T12:00:41.578Z,286.88
2018-03-03T12:01:41.595Z,270.00
2018-03-03T12:02:41.611Z,264.38
2018-03-03T12:03:41.630Z,253.13
2018-03-03T12:04:41.652Z,241.88
2018-03-03T12:05:41.661Z,247.50
2018-03-03T12:06:41.677Z,241.88
2018-03-03T12:07:41.699Z,247.50
2018-03-03T12:08:41.720Z,258.75
2018-03-03T12:09:41.732Z,264.38
2018-03-03T12:10:41.745Z,270.00
2018-03-03T12:11:41.767Z,264.38
2018-03-03T12:12:41.779Z,264.38
2018-03-03T12:13:41.802Z,247.50
2018-03-03T12:14:41.818Z,236.25
2018-03-03T12:15:41.830Z,236.25
2018-03-03T12:16:41.848Z,236.25
2018-03-03T12:17:41.871Z,236.25
2018-03-03T12:18:41.891Z,230.63
2018-03-03T12:19:41.897Z,230.63
2018-03-03T12:20:41.920Z,225.00
2018-03-03T12:21:41.931Z,225.00
2018-03-03T12:22:41.953Z,219.38
2018-03-03T12:23:41.970Z,213.75
2018-03-03T12:24:41.989Z,208.13
2018-03-03T12:25:41.999Z,208.13
2018-03-03T12:26:42.023Z,213.75
2018-03-03T12:27:42.034Z,213.75
2018-03-03T12:28:42.059Z,219.38
2018-03-03T12:29:42.067Z,219.38
2018-03-03T12:30:42.084Z,230.63
2018-03-03T12:31:42.105Z,236.25
2018-03-03T12:32:42.121Z,241.88
2018-03-03T12:33:42.134Z,219.38
2018-03-03T12:34:42.152Z,208.13
2018-03-03T12:35:42.238Z,202.50
2018-03-03T12:36:42.183Z,191.25
2018-03-03T12:37:42.205Z,180.00
2018-03-03T12:38:42.217Z,180.00
2018-03-03T12:39:42.240Z,180.00
2018-03-03T12:40:42.249Z,180.00
2018-03-03T12:41:42.273Z,180.00
2018-03-03T12:42:42.284Z,185.63
2018-03-03T12:43:42.305Z,185.63
2018-03-03T12:44:42.321Z,185.63
2018-03-03T12:45:42.341Z,180.00
2018-03-03T12:46:42.357Z,174.38
2018-03-03T12:47:42.366Z,168.75
2018-03-03T12:48:42.388Z,168.75
2018-03-03T12:49:42.401Z,163.13
2018-03-03T12:50:42.424Z,157.50